Winfield, AL (35594)

7:23 AM CST on February 01, 2015 (GMT -0600)
Winfield East Side 2 | Change Station
CLOSE
Current Station
Personal Weather Station
Location: Winfield, AL
Elevation: 660 ft
Nearby Weather Stations

Elev 660 ft 33.92 °N, 87.80 °W | Updated 12 seconds ago

Overcast
Overcast
46.8 °F
Feels Like 47 °F
N
1.0
Wind Variable Wind from SE
Gusts 7.0 mph

Today
High -- | Low -- °F
--% Chance of Precip.
Yesterday
High -- | Low -- °F
Precip. -- in
6:48 AM 5:21 PM
Waxing Gibbous, 95% visible
Pressure 30.12 in
Visibility 9.0 miles
Clouds
Windchill 47 °F
Dew Point 36 °F
Humidity 67%
Rainfall 0.00 in
Snow Depth Not available.
UV Not available.
Pollen 3.20 out of 12
Air Quality Not available.
Flu Activity Not available.
METAR K1M4 011256Z AUTO 16009KT 9SM -RA 06/00 A3009 RMK AO2 T00610000 RAB34 P0000 SLP199 $

More Conditions Fewer Conditions

Pressure 30.12 in
Visibility 9.0 miles
Clouds
Windchill 47 °F
Dew Point 36 °F
Humidity 67%
Rainfall 0.00 in
Snow Depth Not available.
UV Not available.
Pollen 3.20 out of 12
Air Quality Not available.
Flu Activity Not available.
METAR K1M4 011256Z AUTO 16009KT 9SM -RA 06/00 A3009 RMK AO2 T00610000 RAB34 P0000 SLP199 $

More Conditions Fewer Conditions

10-Day Weather Forecast

Almanac

Astronomy

Feb. 01, 2015 Rise Set
Actual Time
Civil Twilight
Nautical Twilight
Astronomical Twilight
Moon
Length of Visible Light
Length of Day
Tomorrow will be .
, % of the Moon is Illuminated

Today's Extremes

State Highs State Lows

Community

WunderPhotos

Upload Photos

1,792,359 photos uploaded!

WunderBlogs® & News

Nearby

Air Quality

  Air Quality AQ Index Pollutant
Not available.

Snow Depth

Station Depth Elevation

Earthquake Activity

City Distance Mag. Time & Date
Minimum magnitude displayed is 2.5.

Coastal Water Temperatures

Place Temperature

Nearby Weather Stations